KPCD/PCD METAR and TAF weather

Enter ICAO airport designator
Station Type Date Time Source
KPCD METAR 2019/08/22 20:15 UTC NOAA

KPCD 222015Z AUTO 12003KT 10SM SCT015 26/22 A2995 RMK AO2 T02640217


Station Type Date Time Source
KPCD Decoded METAR 2019/08/22 20:15 UTC NOAA

Station name not available
Aug 22, 2019 - 04:15 PM EDT / 2019.08.22 2015 UTC
Wind: from the ESE (120 degrees) at 3 MPH (3 KT):0
Visibility: 10 mile(s):0
Sky conditions: partly cloudy
Temperature: 79.5 F (26.4 C)
Dew Point: 71.1 F (21.7 C)
Relative Humidity: 75%
Pressure (altimeter): 29.95 in. Hg (1014 hPa)
ob: KPCD 222015Z AUTO 12003KT 10SM SCT015 26/22 A2995 RMK AO2 T02640217
cycle: 20

Station Type Date Time Source
KPCD TAF UTC NOAA

Error!

Example: see airport list